Taos, Missouri
Current Conditions -  °F | °C
As of 10:53 PM on Wednesday 22 Oct 2014 (Local Time) from KJEF Reporting Station
Clear Clear  
Wind Chill: 46°   Ceiling: Unl
Heat Index: 48°   Visibility: 10mi
Dew Point: 41°   Wind: 5mph
Humidity: 77%   Direction: 140°SE
Pressure: 30.19"   Gusts: NA
Location:  38.5003°N, 92.1516°W
Report Text: KJEF 230353Z AUTO 14004KT 10SM CLR 09/05 A3019 RMK AO2 SLP215 T00890050
Loading
Personal Weather Stations






























Interactive Weather Map
Tropical Storm Tracking
New forecast layout! Learn more

10-Day Weather Forecast

Advertisements
Track Severe Weather on mobile